createdAt,value
2019-03-18T00:01:41.158Z,1.23
2019-03-18T00:04:12.105Z,1.00
2019-03-18T00:06:43.184Z,1.03
2019-03-18T00:09:14.039Z,0.93
2019-03-18T00:11:44.964Z,1.30
2019-03-18T00:14:15.917Z,1.00
2019-03-18T00:16:46.803Z,1.30
2019-03-18T00:19:17.758Z,1.50
2019-03-18T00:21:48.818Z,1.10
2019-03-18T00:24:19.686Z,1.00
2019-03-18T00:26:50.626Z,1.13
2019-03-18T00:29:21.586Z,1.17
2019-03-18T00:31:52.436Z,1.10
2019-03-18T00:34:23.491Z,0.83
2019-03-18T00:36:54.463Z,1.10
2019-03-18T00:39:25.344Z,0.93
2019-03-18T00:41:56.330Z,1.30
2019-03-18T00:44:27.275Z,1.07
2019-03-18T00:46:58.269Z,1.13
2019-03-18T00:49:29.143Z,1.20
2019-03-18T00:52:00.209Z,1.50
2019-03-18T00:54:31.096Z,1.40
2019-03-18T00:57:01.968Z,1.30
2019-03-18T00:59:32.967Z,1.40
2019-03-18T01:02:04.339Z,1.20
2019-03-18T01:04:35.279Z,1.37
2019-03-18T01:07:06.283Z,1.40
2019-03-18T01:09:37.172Z,1.20
2019-03-18T01:12:08.051Z,1.23
2019-03-18T01:14:38.995Z,1.80
2019-03-18T01:17:09.935Z,1.40
2019-03-18T01:19:40.897Z,1.50
2019-03-18T01:22:11.835Z,1.67
2019-03-18T01:24:42.797Z,1.70
2019-03-18T01:27:13.683Z,1.67
2019-03-18T01:29:44.561Z,1.97
2019-03-18T01:32:15.631Z,1.87
2019-03-18T01:34:46.558Z,1.80
2019-03-18T01:37:17.430Z,1.70
2019-03-18T01:39:48.378Z,1.90
2019-03-18T01:42:19.276Z,2.07
2019-03-18T01:44:50.173Z,1.70
2019-03-18T01:47:21.071Z,1.63
2019-03-18T01:49:52.014Z,1.80
2019-03-18T01:52:22.956Z,2.07
2019-03-18T01:54:53.822Z,1.70
2019-03-18T01:57:24.716Z,1.80
2019-03-18T01:59:55.735Z,1.60
2019-03-18T02:02:26.764Z,1.70
2019-03-18T02:04:57.828Z,1.87
2019-03-18T02:07:28.761Z,2.23
2019-03-18T02:09:59.701Z,2.57
2019-03-18T02:12:30.565Z,2.10
2019-03-18T02:15:01.461Z,2.17
2019-03-18T02:17:32.329Z,1.80
2019-03-18T02:20:03.793Z,1.83
2019-03-18T02:22:34.691Z,1.90
2019-03-18T02:25:07.990Z,1.60
2019-03-18T02:27:39.238Z,1.67
2019-03-18T02:30:12.642Z,1.70
2019-03-18T02:32:43.635Z,1.83
2019-03-18T02:35:14.632Z,1.47
2019-03-18T02:37:45.572Z,1.70
2019-03-18T02:40:16.524Z,1.60
2019-03-18T02:42:47.539Z,1.40
2019-03-18T02:45:18.501Z,1.40
2019-03-18T02:47:49.502Z,1.70
2019-03-18T02:50:20.457Z,1.73
2019-03-18T02:52:51.507Z,1.60
2019-03-18T02:55:22.417Z,1.77
2019-03-18T02:57:53.305Z,1.63
2019-03-18T03:00:24.231Z,1.73
2019-03-18T03:02:55.349Z,2.00
2019-03-18T03:05:26.235Z,1.77
2019-03-18T03:07:57.210Z,1.93
2019-03-18T03:10:28.166Z,1.80
2019-03-18T03:12:59.213Z,1.83
2019-03-18T03:15:30.113Z,1.77
2019-03-18T03:18:01.021Z,1.90
2019-03-18T03:20:32.237Z,1.80
2019-03-18T03:23:03.275Z,1.60
2019-03-18T03:25:34.497Z,1.70
2019-03-18T03:28:05.459Z,1.87
2019-03-18T03:30:36.349Z,1.90
2019-03-18T03:33:07.248Z,2.13
2019-03-18T03:35:38.220Z,1.87
2019-03-18T03:38:09.239Z,1.93
2019-03-18T03:40:40.261Z,1.87
2019-03-18T03:43:11.156Z,2.40
2019-03-18T03:45:42.169Z,2.47
2019-03-18T03:48:13.156Z,2.10
2019-03-18T03:50:44.192Z,2.20
2019-03-18T03:53:15.138Z,2.00
2019-03-18T03:55:46.199Z,2.20
2019-03-18T03:58:17.387Z,2.10
2019-03-18T04:00:48.455Z,1.80
2019-03-18T04:03:19.502Z,1.90
2019-03-18T04:05:50.501Z,1.87
2019-03-18T04:08:21.519Z,2.20
2019-03-18T04:10:52.469Z,2.07
2019-03-18T04:13:24.497Z,1.73
2019-03-18T04:15:55.592Z,2.20
2019-03-18T04:18:26.579Z,2.00
2019-03-18T04:20:57.544Z,2.10
2019-03-18T04:23:28.573Z,1.87
2019-03-18T04:25:59.529Z,1.80
2019-03-18T04:28:30.406Z,2.20
2019-03-18T04:31:01.311Z,2.10
2019-03-18T04:33:32.225Z,2.07
2019-03-18T04:36:03.238Z,2.00
2019-03-18T04:38:34.228Z,2.10
2019-03-18T04:41:05.248Z,2.10
2019-03-18T04:43:36.293Z,1.77
2019-03-18T04:46:07.183Z,2.07
2019-03-18T04:48:38.268Z,2.57
2019-03-18T04:51:09.206Z,2.40
2019-03-18T04:53:40.225Z,2.40
2019-03-18T04:56:11.425Z,2.37
2019-03-18T04:58:42.353Z,2.63
2019-03-18T05:01:13.617Z,2.50
2019-03-18T05:03:47.646Z,2.53
2019-03-18T05:06:18.547Z,2.53
2019-03-18T05:08:49.475Z,2.70
2019-03-18T05:11:20.383Z,2.03
2019-03-18T05:13:51.440Z,2.50
2019-03-18T05:16:22.595Z,2.53
2019-03-18T05:18:53.613Z,2.50
2019-03-18T05:21:24.578Z,2.20
2019-03-18T05:23:55.430Z,2.67
2019-03-18T05:26:26.418Z,2.10
2019-03-18T05:28:57.403Z,1.97
2019-03-18T05:31:28.452Z,2.00
2019-03-18T05:33:59.577Z,2.40
2019-03-18T05:36:31.143Z,2.07
2019-03-18T05:39:02.101Z,1.90
2019-03-18T05:41:33.228Z,1.80
2019-03-18T05:44:04.239Z,1.60
2019-03-18T05:46:35.092Z,2.10
2019-03-18T05:49:06.227Z,1.50
2019-03-18T05:51:37.179Z,1.50
2019-03-18T05:54:10.499Z,1.23
2019-03-18T05:56:41.586Z,1.47
2019-03-18T05:59:12.491Z,1.37
2019-03-18T06:01:43.604Z,1.40
2019-03-18T06:04:18.734Z,1.63
2019-03-18T06:06:49.844Z,1.17
2019-03-18T06:09:20.811Z,1.30
2019-03-18T06:11:54.884Z,1.10
2019-03-18T06:14:28.424Z,1.23
2019-03-18T06:16:59.828Z,1.20
2019-03-18T06:19:30.874Z,1.20
2019-03-18T06:22:01.867Z,1.20
2019-03-18T06:24:32.857Z,1.20
2019-03-18T06:27:04.257Z,1.30
2019-03-18T06:29:35.135Z,1.30
2019-03-18T06:32:06.098Z,1.10
2019-03-18T06:34:37.138Z,1.10
2019-03-18T06:37:08.134Z,1.30
2019-03-18T06:39:39.058Z,1.00
2019-03-18T06:42:10.086Z,1.30
2019-03-18T06:44:41.016Z,1.33
2019-03-18T06:47:12.057Z,1.10
2019-03-18T06:49:43.052Z,1.60
2019-03-18T06:52:13.956Z,1.50
2019-03-18T06:54:45.214Z,1.10
2019-03-18T06:57:16.172Z,2.13
2019-03-18T06:59:47.129Z,1.27
2019-03-18T07:02:18.074Z,1.43
2019-03-18T07:04:49.006Z,1.00
2019-03-18T07:07:19.958Z,1.73
2019-03-18T07:09:50.931Z,1.70
2019-03-18T07:12:21.842Z,1.50
2019-03-18T07:14:52.816Z,1.60
2019-03-18T07:17:23.789Z,1.50
2019-03-18T07:19:54.750Z,1.77
2019-03-18T07:22:25.704Z,1.60
2019-03-18T07:24:56.667Z,1.50
2019-03-18T07:27:27.629Z,1.60
2019-03-18T07:29:58.746Z,1.67
2019-03-18T07:32:29.607Z,2.00
2019-03-18T07:35:00.739Z,1.50
2019-03-18T07:37:31.632Z,2.03
2019-03-18T07:40:02.818Z,1.33
2019-03-18T07:42:33.961Z,1.40
2019-03-18T07:45:07.628Z,2.17
2019-03-18T07:47:38.654Z,1.70
2019-03-18T07:50:12.192Z,1.47
2019-03-18T07:52:43.241Z,2.30
2019-03-18T07:55:14.312Z,1.90
2019-03-18T07:57:45.310Z,1.73
2019-03-18T08:00:16.872Z,2.10
2019-03-18T08:02:47.712Z,1.77
2019-03-18T08:05:18.658Z,1.70
2019-03-18T08:07:49.702Z,2.00
2019-03-18T08:10:20.732Z,1.93
2019-03-18T08:12:51.777Z,3.20
2019-03-18T08:15:22.813Z,3.17
2019-03-18T08:17:53.834Z,3.20
2019-03-18T08:20:24.761Z,3.17
2019-03-18T08:22:55.791Z,3.53
2019-03-18T08:25:26.779Z,2.33
2019-03-18T08:27:57.639Z,2.90
2019-03-18T08:30:28.752Z,2.40
2019-03-18T08:32:59.690Z,3.40
2019-03-18T08:35:30.605Z,3.70
2019-03-18T08:38:01.529Z,2.93
2019-03-18T08:40:32.447Z,2.17
2019-03-18T08:43:03.491Z,2.83
2019-03-18T08:45:34.529Z,2.50
2019-03-18T08:48:05.541Z,2.30
2019-03-18T08:50:36.590Z,2.50
2019-03-18T08:53:07.495Z,3.07
2019-03-18T08:55:38.558Z,2.60
2019-03-18T08:58:09.527Z,2.47
2019-03-18T09:00:40.641Z,3.20
2019-03-18T09:03:11.628Z,2.10
2019-03-18T09:05:42.624Z,2.00
2019-03-18T09:08:13.642Z,2.43
2019-03-18T09:10:44.586Z,2.43
2019-03-18T09:13:15.637Z,2.60
2019-03-18T09:15:46.591Z,1.93
2019-03-18T09:18:17.551Z,2.10
2019-03-18T09:20:48.417Z,1.97
2019-03-18T09:23:19.375Z,2.27
2019-03-18T09:25:50.329Z,2.03
2019-03-18T09:28:22.326Z,1.70
2019-03-18T09:30:53.408Z,1.27
2019-03-18T09:33:24.339Z,1.70
2019-03-18T09:35:55.403Z,1.57
2019-03-18T09:38:26.519Z,1.30
2019-03-18T09:40:57.582Z,1.43
2019-03-18T09:43:28.607Z,1.63
2019-03-18T09:45:59.599Z,1.87
2019-03-18T09:48:30.698Z,1.70
2019-03-18T09:51:01.679Z,2.00
2019-03-18T09:53:32.719Z,1.80
2019-03-18T09:56:03.739Z,1.60
2019-03-18T09:58:34.744Z,1.50
2019-03-18T10:01:05.727Z,1.53
2019-03-18T10:03:36.689Z,1.40
2019-03-18T10:06:07.694Z,2.20
2019-03-18T10:08:38.559Z,1.30
2019-03-18T10:11:09.706Z,1.57
2019-03-18T10:13:40.629Z,1.30
2019-03-18T10:16:11.583Z,1.30
2019-03-18T10:18:42.472Z,1.13
2019-03-18T10:21:13.490Z,1.40
2019-03-18T10:23:44.468Z,1.30
2019-03-18T10:26:15.399Z,1.10
2019-03-18T10:28:46.367Z,1.00
2019-03-18T10:31:17.389Z,1.10
2019-03-18T10:33:48.344Z,1.10
2019-03-18T10:36:19.329Z,1.20
2019-03-18T10:38:52.610Z,1.10
2019-03-18T10:41:23.043Z,1.07
2019-03-18T10:43:53.924Z,0.90
2019-03-18T10:46:26.246Z,1.13
2019-03-18T10:48:57.464Z,1.17
2019-03-18T10:51:28.500Z,0.90
2019-03-18T10:53:59.558Z,0.90
2019-03-18T10:56:30.440Z,1.13
2019-03-18T10:59:01.644Z,1.10
2019-03-18T11:01:32.637Z,1.10
2019-03-18T11:04:03.558Z,1.20
2019-03-18T11:06:34.459Z,1.37
2019-03-18T11:09:06.969Z,1.37
2019-03-18T11:11:37.837Z,1.73
2019-03-18T11:14:08.797Z,1.40
2019-03-18T11:16:39.842Z,1.07
2019-03-18T11:19:10.887Z,1.10
2019-03-18T11:21:41.774Z,1.03
2019-03-18T11:24:12.760Z,0.70
2019-03-18T11:26:43.802Z,1.20
2019-03-18T11:29:14.988Z,1.40
2019-03-18T11:31:45.891Z,1.07
2019-03-18T11:34:16.853Z,1.20
2019-03-18T11:36:47.984Z,1.10
2019-03-18T11:39:19.109Z,1.33
2019-03-18T11:41:50.166Z,1.30
2019-03-18T11:44:21.123Z,1.40
2019-03-18T11:46:52.150Z,1.07
2019-03-18T11:49:23.160Z,1.00
2019-03-18T11:51:54.083Z,1.00
2019-03-18T11:54:25.169Z,1.20
2019-03-18T11:56:56.374Z,1.30
2019-03-18T11:59:27.656Z,0.90
2019-03-18T12:01:58.508Z,1.53
2019-03-18T12:04:29.426Z,1.30
2019-03-18T12:07:00.468Z,1.33
2019-03-18T12:09:31.555Z,1.23
2019-03-18T12:12:02.692Z,1.43
2019-03-18T12:14:33.557Z,1.20
2019-03-18T12:17:04.521Z,1.63
2019-03-18T12:19:35.413Z,1.77
2019-03-18T12:22:06.289Z,1.50
2019-03-18T12:24:37.508Z,1.40
2019-03-18T12:27:08.537Z,2.03
2019-03-18T12:29:39.536Z,1.90
2019-03-18T12:32:10.480Z,1.77
2019-03-18T12:34:41.421Z,2.00
2019-03-18T12:37:12.461Z,1.90
2019-03-18T12:39:43.426Z,1.97
2019-03-18T12:42:14.537Z,1.50
2019-03-18T12:44:45.455Z,1.80
2019-03-18T12:47:16.398Z,1.57
2019-03-18T12:49:47.351Z,1.80
2019-03-18T12:52:18.195Z,2.60
2019-03-18T12:54:49.437Z,1.90
2019-03-18T12:57:20.385Z,2.30
2019-03-18T12:59:51.313Z,1.47
2019-03-18T13:02:22.297Z,1.73
2019-03-18T13:04:53.331Z,1.63
2019-03-18T13:07:24.241Z,1.83
2019-03-18T13:09:55.280Z,2.33
2019-03-18T13:12:26.125Z,1.30
2019-03-18T13:14:57.011Z,2.87
2019-03-18T13:17:27.926Z,1.53
2019-03-18T13:19:58.951Z,1.83
2019-03-18T13:22:30.069Z,2.73
2019-03-18T13:25:05.751Z,1.80
2019-03-18T13:27:36.755Z,1.60
2019-03-18T13:30:10.729Z,2.37
2019-03-18T13:32:44.002Z,1.80
2019-03-18T13:35:21.300Z,1.63
2019-03-18T13:37:52.177Z,1.40
2019-03-18T13:40:23.263Z,1.00
2019-03-18T13:42:54.296Z,1.40
2019-03-18T13:45:25.302Z,1.37
2019-03-18T13:47:56.535Z,1.30
2019-03-18T13:50:27.701Z,1.50
2019-03-18T13:52:58.663Z,1.47
2019-03-18T13:55:31.865Z,1.37
2019-03-18T13:58:02.531Z,1.20
2019-03-18T14:00:33.528Z,1.17
2019-03-18T14:03:04.583Z,1.00
2019-03-18T14:05:35.591Z,1.20
2019-03-18T14:08:06.602Z,0.90
2019-03-18T14:10:37.658Z,1.00
2019-03-18T14:13:08.739Z,1.00
2019-03-18T14:15:39.707Z,0.70
2019-03-18T14:18:10.637Z,0.90
2019-03-18T14:20:41.517Z,1.17
2019-03-18T14:23:12.485Z,0.90
2019-03-18T14:25:45.527Z,1.10
2019-03-18T14:28:16.317Z,1.23
2019-03-18T14:30:47.207Z,1.00
2019-03-18T14:33:18.116Z,1.00
2019-03-18T14:35:49.195Z,1.03
2019-03-18T14:38:20.201Z,0.87
2019-03-18T14:40:51.117Z,0.93
2019-03-18T14:43:22.107Z,0.87
2019-03-18T14:45:52.967Z,1.03
2019-03-18T14:48:23.923Z,1.20
2019-03-18T14:50:54.898Z,1.00
2019-03-18T14:53:25.909Z,0.90
2019-03-18T14:55:57.159Z,1.13
2019-03-18T14:58:28.050Z,1.13
2019-03-18T15:00:58.964Z,1.03
2019-03-18T15:03:30.081Z,0.90
2019-03-18T15:06:01.097Z,0.80
2019-03-18T15:08:32.253Z,0.70
2019-03-18T15:11:03.210Z,0.90
2019-03-18T15:13:34.166Z,0.80
2019-03-18T15:16:05.469Z,0.67
2019-03-18T15:18:36.341Z,1.53
2019-03-18T15:21:07.568Z,1.10
2019-03-18T15:23:38.444Z,1.53
2019-03-18T15:26:09.414Z,1.10
2019-03-18T15:28:40.999Z,1.23
2019-03-18T15:31:11.873Z,1.00
2019-03-18T15:33:42.757Z,1.20
2019-03-18T15:36:13.806Z,0.90
2019-03-18T15:38:46.296Z,1.00
2019-03-18T15:41:17.327Z,0.93
2019-03-18T15:43:48.364Z,1.20
2019-03-18T15:46:19.398Z,1.40
2019-03-18T15:48:50.355Z,1.27
2019-03-18T15:51:23.473Z,0.73
2019-03-18T15:53:54.472Z,0.90
2019-03-18T15:56:30.328Z,0.83
2019-03-18T15:59:01.291Z,0.80
2019-03-18T16:01:32.798Z,0.73
2019-03-18T16:04:03.859Z,0.60
2019-03-18T16:06:34.769Z,0.70
2019-03-18T16:09:07.683Z,0.50
2019-03-18T16:11:38.622Z,0.83
2019-03-18T16:14:09.527Z,0.77
2019-03-18T16:16:40.484Z,0.70
2019-03-18T16:19:11.483Z,0.40
2019-03-18T16:21:42.438Z,0.60
2019-03-18T16:24:13.393Z,0.40
2019-03-18T16:26:44.458Z,0.30
2019-03-18T16:29:15.380Z,0.47
2019-03-18T16:31:46.319Z,0.47
2019-03-18T16:34:17.300Z,0.27
2019-03-18T16:36:48.482Z,0.40
2019-03-18T16:39:19.446Z,0.30
2019-03-18T16:41:50.453Z,0.37
2019-03-18T16:44:21.389Z,0.40
2019-03-18T16:46:52.406Z,0.57
2019-03-18T16:49:23.270Z,0.50
2019-03-18T16:51:54.250Z,0.50
2019-03-18T16:54:25.122Z,0.40
2019-03-18T16:56:56.080Z,0.60
2019-03-18T16:59:26.966Z,0.60
2019-03-18T17:01:57.846Z,0.50
2019-03-18T17:04:28.818Z,0.70
2019-03-18T17:06:59.797Z,0.70
2019-03-18T17:09:30.902Z,0.53
2019-03-18T17:12:01.884Z,0.73
2019-03-18T17:14:32.813Z,0.70
2019-03-18T17:17:03.875Z,0.80
2019-03-18T17:19:35.020Z,1.00
2019-03-18T17:22:06.361Z,0.70
2019-03-18T17:24:37.256Z,0.73
2019-03-18T17:27:08.224Z,1.10
2019-03-18T17:29:39.160Z,1.30
2019-03-18T17:32:10.239Z,1.10
2019-03-18T17:34:41.249Z,1.30
2019-03-18T17:37:12.181Z,1.37
2019-03-18T17:39:44.101Z,1.30
2019-03-18T17:42:15.220Z,1.30
2019-03-18T17:44:46.252Z,1.63
2019-03-18T17:47:17.209Z,1.50
2019-03-18T17:49:48.235Z,1.40
2019-03-18T17:52:19.121Z,1.57
2019-03-18T17:54:50.157Z,1.43
2019-03-18T17:57:21.178Z,1.40
2019-03-18T17:59:52.063Z,1.47
2019-03-18T18:02:37.419Z,1.40
2019-03-18T18:05:15.039Z,1.30
2019-03-18T18:07:46.075Z,1.70
2019-03-18T18:10:17.724Z,1.70
2019-03-18T18:12:48.945Z,2.17
2019-03-18T18:15:20.420Z,1.87
2019-03-18T18:17:51.632Z,1.60
2019-03-18T18:20:22.909Z,1.60
2019-03-18T18:22:53.843Z,1.73
2019-03-18T18:25:25.150Z,1.80
2019-03-18T18:27:56.333Z,1.80
2019-03-18T18:30:28.287Z,1.50
2019-03-18T18:32:59.763Z,1.70
2019-03-18T18:35:30.709Z,1.60
2019-03-18T18:38:01.733Z,1.50
2019-03-18T18:40:33.321Z,1.53
2019-03-18T18:43:05.691Z,1.80
2019-03-18T18:45:36.695Z,1.60
2019-03-18T18:48:19.104Z,1.77
2019-03-18T18:50:50.896Z,1.77
2019-03-18T18:53:26.470Z,1.80
2019-03-18T18:55:56.563Z,2.13
2019-03-18T18:58:27.602Z,2.80
2019-03-18T19:01:00.150Z,2.83
2019-03-18T19:03:31.246Z,2.57
2019-03-18T19:06:02.366Z,2.80
2019-03-18T19:08:33.527Z,3.17
2019-03-18T19:11:04.701Z,3.50
2019-03-18T19:13:35.659Z,3.60
2019-03-18T19:16:06.576Z,3.50
2019-03-18T19:18:38.371Z,3.47
2019-03-18T19:21:09.514Z,3.00
2019-03-18T19:23:40.476Z,3.17
2019-03-18T19:26:11.401Z,4.13
2019-03-18T19:28:42.460Z,4.87
2019-03-18T19:31:13.400Z,4.63
2019-03-18T19:33:44.525Z,4.30
2019-03-18T19:36:15.441Z,3.93
2019-03-18T19:38:46.465Z,4.00
2019-03-18T19:41:17.400Z,5.03
2019-03-18T19:43:48.386Z,3.70
2019-03-18T19:46:19.249Z,3.37
2019-03-18T19:48:50.284Z,2.90
2019-03-18T19:51:21.219Z,3.57
2019-03-18T19:53:52.329Z,3.40
2019-03-18T19:56:23.260Z,3.80
2019-03-18T19:58:54.196Z,3.73
2019-03-18T20:01:25.180Z,3.60
2019-03-18T20:03:56.180Z,3.63
2019-03-18T20:06:27.164Z,3.30
2019-03-18T20:08:58.039Z,3.93
2019-03-18T20:11:29.148Z,4.30
2019-03-18T20:14:00.234Z,3.60
2019-03-18T20:16:31.280Z,3.80
2019-03-18T20:19:02.131Z,4.00
2019-03-18T20:21:34.733Z,3.87
2019-03-18T20:24:05.823Z,4.70
2019-03-18T20:26:36.940Z,3.63
2019-03-18T20:29:07.880Z,3.50
2019-03-18T20:31:38.758Z,3.07
2019-03-18T20:34:09.748Z,3.10
2019-03-18T20:36:40.748Z,3.50
2019-03-18T20:39:11.941Z,3.43
2019-03-18T20:41:42.944Z,3.77
2019-03-18T20:44:13.887Z,3.80
2019-03-18T20:46:44.773Z,3.80
2019-03-18T20:49:17.027Z,3.20
2019-03-18T20:51:49.658Z,3.40
2019-03-18T20:54:20.517Z,3.10
2019-03-18T20:56:51.450Z,2.93
2019-03-18T20:59:22.345Z,2.67
2019-03-18T21:01:53.522Z,2.50
2019-03-18T21:04:24.647Z,3.00
2019-03-18T21:06:55.732Z,2.90
2019-03-18T21:09:26.673Z,2.50
2019-03-18T21:11:57.579Z,2.60
2019-03-18T21:14:35.752Z,2.73
2019-03-18T21:17:06.894Z,2.83
2019-03-18T21:19:38.133Z,3.20
2019-03-18T21:22:09.602Z,3.30
2019-03-18T21:24:40.567Z,2.93
2019-03-18T21:27:11.956Z,3.30
2019-03-18T21:29:42.957Z,3.17
2019-03-18T21:32:13.925Z,3.40
2019-03-18T21:34:44.979Z,3.13
2019-03-18T21:37:15.879Z,2.90
2019-03-18T21:39:46.996Z,3.20
2019-03-18T21:42:17.995Z,2.63
2019-03-18T21:44:49.034Z,2.47
2019-03-18T21:47:19.989Z,3.30
2019-03-18T21:49:50.916Z,3.20
2019-03-18T21:52:21.888Z,3.40
2019-03-18T21:54:52.959Z,3.20
2019-03-18T21:57:24.013Z,3.63
2019-03-18T21:59:57.445Z,3.73
2019-03-18T22:02:27.871Z,3.67
2019-03-18T22:04:58.803Z,4.23
2019-03-18T22:07:30.056Z,4.63
2019-03-18T22:10:01.029Z,4.10
2019-03-18T22:12:32.001Z,3.93
2019-03-18T22:15:02.879Z,3.40
2019-03-18T22:17:33.895Z,4.00
2019-03-18T22:20:08.047Z,3.73
2019-03-18T22:22:38.933Z,3.70
2019-03-18T22:25:11.523Z,3.43
2019-03-18T22:27:42.570Z,3.33
2019-03-18T22:30:15.104Z,3.53
2019-03-18T22:32:46.148Z,3.67
2019-03-18T22:35:17.339Z,4.50
2019-03-18T22:37:48.272Z,3.80
2019-03-18T22:40:19.410Z,4.27
2019-03-18T22:42:50.449Z,4.20
2019-03-18T22:45:21.336Z,4.00
2019-03-18T22:47:52.373Z,4.37
2019-03-18T22:50:23.365Z,4.17
2019-03-18T22:52:54.216Z,4.43
2019-03-18T22:55:25.153Z,4.50
2019-03-18T22:57:56.073Z,4.17
2019-03-18T23:00:44.870Z,4.00
2019-03-18T23:03:15.995Z,4.40
2019-03-18T23:05:47.223Z,4.77
2019-03-18T23:08:18.177Z,4.77
2019-03-18T23:10:51.558Z,4.20
2019-03-18T23:13:22.544Z,4.70
2019-03-18T23:15:53.434Z,4.93
2019-03-18T23:18:24.518Z,4.53
2019-03-18T23:20:55.482Z,5.00
2019-03-18T23:23:26.375Z,5.67
2019-03-18T23:25:57.303Z,5.37
2019-03-18T23:28:28.235Z,5.03
2019-03-18T23:30:59.267Z,5.00
2019-03-18T23:33:30.154Z,5.60
2019-03-18T23:36:01.044Z,5.80
2019-03-18T23:38:32.077Z,5.10
2019-03-18T23:41:03.047Z,5.70
2019-03-18T23:43:34.077Z,5.50
2019-03-18T23:46:05.123Z,6.00
2019-03-18T23:48:36.043Z,6.90
2019-03-18T23:51:07.236Z,7.13
2019-03-18T23:53:38.247Z,7.03
2019-03-18T23:56:09.210Z,6.77
2019-03-18T23:58:40.180Z,6.77
